sensor_id;sensor_type;location;lat;lon;timestamp;pressure;altitude;pressure_sealevel;temperature;humidity
38616;BME280;24370;51.986;4.666;2023-06-05T00:00:30;102457.88;;;22.50;40.72
38616;BME280;24370;51.986;4.666;2023-06-05T00:02:55;102451.00;;;22.43;40.69
38616;BME280;24370;51.986;4.666;2023-06-05T00:05:21;102438.09;;;22.58;40.09
38616;BME280;24370;51.986;4.666;2023-06-05T00:07:46;102433.41;;;22.64;39.87
38616;BME280;24370;51.986;4.666;2023-06-05T00:10:12;102431.31;;;22.47;40.30
38616;BME280;24370;51.986;4.666;2023-06-05T00:12:38;102440.34;;;22.43;39.94
38616;BME280;24370;51.986;4.666;2023-06-05T00:15:04;102436.09;;;22.88;39.27
38616;BME280;24370;51.986;4.666;2023-06-05T00:17:30;102438.78;;;22.88;39.17
38616;BME280;24370;51.986;4.666;2023-06-05T00:19:56;102442.06;;;21.91;41.57
38616;BME280;24370;51.986;4.666;2023-06-05T00:22:25;102438.53;;;22.17;40.93
38616;BME280;24370;51.986;4.666;2023-06-05T00:24:50;102434.66;;;23.03;38.86
38616;BME280;24370;51.986;4.666;2023-06-05T00:27:16;102441.38;;;22.12;41.08
38616;BME280;24370;51.986;4.666;2023-06-05T00:29:41;102444.16;;;22.09;40.56
38616;BME280;24370;51.986;4.666;2023-06-05T00:32:06;102434.59;;;22.56;39.74
38616;BME280;24370;51.986;4.666;2023-06-05T00:34:32;102445.34;;;22.52;39.47
38616;BME280;24370;51.986;4.666;2023-06-05T00:36:57;102443.13;;;22.13;40.35
38616;BME280;24370;51.986;4.666;2023-06-05T00:39:23;102437.91;;;22.62;39.31
38616;BME280;24370;51.986;4.666;2023-06-05T00:41:48;102441.44;;;22.11;40.55
38616;BME280;24370;51.986;4.666;2023-06-05T00:44:14;102440.53;;;21.83;41.72
38616;BME280;24370;51.986;4.666;2023-06-05T00:46:40;102442.97;;;21.63;41.88
38616;BME280;24370;51.986;4.666;2023-06-05T00:49:07;102436.31;;;22.31;40.50
38616;BME280;24370;51.986;4.666;2023-06-05T00:51:33;102441.47;;;21.52;42.02
38616;BME280;24370;51.986;4.666;2023-06-05T00:53:59;102445.97;;;21.50;42.31
38616;BME280;24370;51.986;4.666;2023-06-05T00:56:25;102435.41;;;21.17;42.15
38616;BME280;24370;51.986;4.666;2023-06-05T00:58:52;102437.78;;;22.40;39.91
38616;BME280;24370;51.986;4.666;2023-06-05T01:01:18;102432.25;;;22.19;40.59
38616;BME280;24370;51.986;4.666;2023-06-05T01:03:46;102431.56;;;22.41;40.26
38616;BME280;24370;51.986;4.666;2023-06-05T01:06:13;102430.47;;;21.35;42.19
38616;BME280;24370;51.986;4.666;2023-06-05T01:08:39;102436.44;;;21.43;42.21
38616;BME280;24370;51.986;4.666;2023-06-05T01:11:38;102433.69;;;21.75;41.53
38616;BME280;24370;51.986;4.666;2023-06-05T01:14:18;102433.94;;;21.37;42.46
38616;BME280;24370;51.986;4.666;2023-06-05T01:16:53;102434.81;;;22.49;40.15
38616;BME280;24370;51.986;4.666;2023-06-05T01:19:20;102434.91;;;22.19;40.50
38616;BME280;24370;51.986;4.666;2023-06-05T01:21:46;102429.41;;;22.26;40.68
38616;BME280;24370;51.986;4.666;2023-06-05T01:24:12;102427.63;;;21.98;41.40
38616;BME280;24370;51.986;4.666;2023-06-05T01:27:04;102420.09;;;21.84;41.66
38616;BME280;24370;51.986;4.666;2023-06-05T01:32:16;102427.72;;;21.38;42.66
38616;BME280;24370;51.986;4.666;2023-06-05T01:34:44;102420.03;;;22.66;39.55
38616;BME280;24370;51.986;4.666;2023-06-05T01:37:14;102421.97;;;21.82;41.57
38616;BME280;24370;51.986;4.666;2023-06-05T01:39:45;102429.38;;;21.42;42.27
38616;BME280;24370;51.986;4.666;2023-06-05T01:42:12;102422.41;;;21.68;41.71
38616;BME280;24370;51.986;4.666;2023-06-05T01:44:39;102424.84;;;21.74;41.69
38616;BME280;24370;51.986;4.666;2023-06-05T01:47:06;102422.53;;;21.63;41.89
38616;BME280;24370;51.986;4.666;2023-06-05T01:49:32;102423.59;;;21.86;40.88
38616;BME280;24370;51.986;4.666;2023-06-05T01:51:59;102424.06;;;21.71;41.64
38616;BME280;24370;51.986;4.666;2023-06-05T01:54:24;102416.88;;;22.28;40.15
38616;BME280;24370;51.986;4.666;2023-06-05T01:56:52;102417.66;;;22.05;40.65
38616;BME280;24370;51.986;4.666;2023-06-05T01:59:18;102410.53;;;22.32;39.90
38616;BME280;24370;51.986;4.666;2023-06-05T02:01:43;102406.00;;;21.54;41.30
38616;BME280;24370;51.986;4.666;2023-06-05T02:04:12;102414.84;;;21.24;42.02
38616;BME280;24370;51.986;4.666;2023-06-05T02:06:44;102415.53;;;21.31;42.34
38616;BME280;24370;51.986;4.666;2023-06-05T02:09:10;102412.09;;;21.57;41.97
38616;BME280;24370;51.986;4.666;2023-06-05T02:11:36;102399.19;;;22.00;40.87
38616;BME280;24370;51.986;4.666;2023-06-05T02:14:06;102396.72;;;22.20;40.31
38616;BME280;24370;51.986;4.666;2023-06-05T02:16:38;102400.81;;;22.04;40.43
38616;BME280;24370;51.986;4.666;2023-06-05T02:19:03;102401.59;;;21.23;41.92
38616;BME280;24370;51.986;4.666;2023-06-05T02:21:30;102407.88;;;21.48;41.54
38616;BME280;24370;51.986;4.666;2023-06-05T02:23:58;102399.53;;;21.02;42.39
38616;BME280;24370;51.986;4.666;2023-06-05T02:26:23;102407.91;;;22.05;40.53
38616;BME280;24370;51.986;4.666;2023-06-05T02:28:49;102392.81;;;20.89;42.87
38616;BME280;24370;51.986;4.666;2023-06-05T02:31:14;102395.13;;;21.88;41.25
38616;BME280;24370;51.986;4.666;2023-06-05T02:33:41;102397.97;;;21.55;41.59
38616;BME280;24370;51.986;4.666;2023-06-05T02:36:06;102395.28;;;21.25;42.47
38616;BME280;24370;51.986;4.666;2023-06-05T02:38:32;102403.09;;;21.61;41.06
38616;BME280;24370;51.986;4.666;2023-06-05T02:40:57;102411.09;;;21.88;40.60
38616;BME280;24370;51.986;4.666;2023-06-05T02:43:23;102401.91;;;21.98;40.71
38616;BME280;24370;51.986;4.666;2023-06-05T02:45:48;102397.97;;;21.55;41.45
38616;BME280;24370;51.986;4.666;2023-06-05T02:48:14;102403.16;;;21.86;40.55
38616;BME280;24370;51.986;4.666;2023-06-05T02:50:39;102400.97;;;21.43;41.37
38616;BME280;24370;51.986;4.666;2023-06-05T02:53:05;102393.34;;;21.02;42.74
38616;BME280;24370;51.986;4.666;2023-06-05T02:55:30;102394.97;;;21.66;41.40
38616;BME280;24370;51.986;4.666;2023-06-05T02:57:57;102395.81;;;21.68;41.18
38616;BME280;24370;51.986;4.666;2023-06-05T03:00:23;102394.66;;;21.75;40.86
38616;BME280;24370;51.986;4.666;2023-06-05T03:02:51;102390.03;;;21.54;40.95
38616;BME280;24370;51.986;4.666;2023-06-05T03:05:16;102386.19;;;20.73;43.53
38616;BME280;24370;51.986;4.666;2023-06-05T03:07:52;102381.72;;;21.64;41.11
38616;BME280;24370;51.986;4.666;2023-06-05T03:10:21;102387.94;;;21.63;40.85
38616;BME280;24370;51.986;4.666;2023-06-05T03:12:47;102383.00;;;21.21;41.69
38616;BME280;24370;51.986;4.666;2023-06-05T03:15:13;102375.94;;;21.78;40.52
38616;BME280;24370;51.986;4.666;2023-06-05T03:17:38;102380.69;;;21.10;42.25
38616;BME280;24370;51.986;4.666;2023-06-05T03:20:05;102385.66;;;21.23;41.57
38616;BME280;24370;51.986;4.666;2023-06-05T03:22:34;102373.88;;;21.60;40.76
38616;BME280;24370;51.986;4.666;2023-06-05T03:25:00;102372.81;;;21.65;40.73
38616;BME280;24370;51.986;4.666;2023-06-05T03:27:26;102369.88;;;21.73;40.49
38616;BME280;24370;51.986;4.666;2023-06-05T03:29:51;102373.28;;;21.78;40.36
38616;BME280;24370;51.986;4.666;2023-06-05T03:32:17;102373.50;;;21.72;40.68
38616;BME280;24370;51.986;4.666;2023-06-05T03:34:42;102382.03;;;21.24;41.63
38616;BME280;24370;51.986;4.666;2023-06-05T03:37:08;102378.25;;;21.61;40.68
38616;BME280;24370;51.986;4.666;2023-06-05T03:39:34;102371.47;;;21.50;41.13
38616;BME280;24370;51.986;4.666;2023-06-05T03:42:00;102372.59;;;20.83;42.29
38616;BME280;24370;51.986;4.666;2023-06-05T03:44:26;102372.59;;;21.43;40.84
38616;BME280;24370;51.986;4.666;2023-06-05T03:46:51;102379.06;;;21.06;41.84
38616;BME280;24370;51.986;4.666;2023-06-05T03:49:17;102375.97;;;21.48;40.96
38616;BME280;24370;51.986;4.666;2023-06-05T03:51:43;102378.69;;;21.18;41.28
38616;BME280;24370;51.986;4.666;2023-06-05T03:54:10;102370.22;;;21.04;41.65
38616;BME280;24370;51.986;4.666;2023-06-05T03:56:35;102377.56;;;21.56;40.76
38616;BME280;24370;51.986;4.666;2023-06-05T03:59:04;102373.91;;;21.00;41.85
38616;BME280;24370;51.986;4.666;2023-06-05T04:01:43;102383.69;;;20.68;42.09
38616;BME280;24370;51.986;4.666;2023-06-05T04:04:08;102378.09;;;20.44;42.98
38616;BME280;24370;51.986;4.666;2023-06-05T04:06:35;102377.16;;;20.45;42.64
38616;BME280;24370;51.986;4.666;2023-06-05T04:09:02;102381.06;;;20.98;42.02
38616;BME280;24370;51.986;4.666;2023-06-05T04:11:34;102381.34;;;21.17;41.76
38616;BME280;24370;51.986;4.666;2023-06-05T04:14:00;102379.22;;;21.00;41.58
38616;BME280;24370;51.986;4.666;2023-06-05T04:16:25;102378.09;;;20.77;42.38
38616;BME280;24370;51.986;4.666;2023-06-05T04:18:51;102380.22;;;21.56;40.31
38616;BME280;24370;51.986;4.666;2023-06-05T04:21:16;102382.03;;;20.95;42.14
38616;BME280;24370;51.986;4.666;2023-06-05T04:23:42;102379.22;;;21.00;41.71
38616;BME280;24370;51.986;4.666;2023-06-05T04:26:07;102385.50;;;21.57;40.34
38616;BME280;24370;51.986;4.666;2023-06-05T04:28:32;102388.38;;;21.78;39.84
38616;BME280;24370;51.986;4.666;2023-06-05T04:31:00;102385.66;;;21.23;40.99
38616;BME280;24370;51.986;4.666;2023-06-05T04:33:27;102382.34;;;21.14;41.24
38616;BME280;24370;51.986;4.666;2023-06-05T04:35:52;102384.75;;;20.28;43.82
38616;BME280;24370;51.986;4.666;2023-06-05T04:38:18;102381.72;;;21.05;41.59
38616;BME280;24370;51.986;4.666;2023-06-05T04:40:49;102394.63;;;20.21;42.31
38616;BME280;24370;51.986;4.666;2023-06-05T04:43:15;102394.69;;;21.15;41.84
38616;BME280;24370;51.986;4.666;2023-06-05T04:45:41;102390.97;;;23.31;37.68
38616;BME280;24370;51.986;4.666;2023-06-05T04:48:07;102391.50;;;22.68;37.95
38616;BME280;24370;51.986;4.666;2023-06-05T04:50:32;102394.06;;;23.42;36.80
38616;BME280;24370;51.986;4.666;2023-06-05T04:52:59;102400.69;;;24.41;35.69
38616;BME280;24370;51.986;4.666;2023-06-05T04:55:24;102390.38;;;22.99;37.50
38616;BME280;24370;51.986;4.666;2023-06-05T04:57:50;102395.75;;;24.11;36.18
38616;BME280;24370;51.986;4.666;2023-06-05T05:00:16;102406.13;;;23.75;35.76
38616;BME280;24370;51.986;4.666;2023-06-05T05:02:43;102402.16;;;24.48;35.02
38616;BME280;24370;51.986;4.666;2023-06-05T05:05:08;102408.09;;;23.69;35.82
38616;BME280;24370;51.986;4.666;2023-06-05T05:07:34;102406.34;;;23.46;36.79
38616;BME280;24370;51.986;4.666;2023-06-05T05:10:01;102409.75;;;23.04;37.36
38616;BME280;24370;51.986;4.666;2023-06-05T05:12:26;102408.00;;;23.03;37.05
38616;BME280;24370;51.986;4.666;2023-06-05T05:14:52;102404.25;;;22.60;37.77
38616;BME280;24370;51.986;4.666;2023-06-05T05:17:17;102417.81;;;21.43;40.56
38616;BME280;24370;51.986;4.666;2023-06-05T05:19:45;102408.38;;;22.43;38.79
38616;BME280;24370;51.986;4.666;2023-06-05T05:22:10;102406.84;;;21.82;39.67
38616;BME280;24370;51.986;4.666;2023-06-05T05:24:36;102398.38;;;22.75;38.24
38616;BME280;24370;51.986;4.666;2023-06-05T05:27:01;102402.19;;;21.89;40.15
38616;BME280;24370;51.986;4.666;2023-06-05T05:29:27;102404.03;;;22.66;38.78
38616;BME280;24370;51.986;4.666;2023-06-05T05:31:52;102406.66;;;22.42;38.68
38616;BME280;24370;51.986;4.666;2023-06-05T05:34:18;102403.50;;;23.29;37.20
38616;BME280;24370;51.986;4.666;2023-06-05T05:36:44;102409.50;;;22.86;38.31
38616;BME280;24370;51.986;4.666;2023-06-05T05:39:09;102412.38;;;22.03;40.24
38616;BME280;24370;51.986;4.666;2023-06-05T05:41:35;102410.44;;;22.35;39.63
38616;BME280;24370;51.986;4.666;2023-06-05T05:44:01;102404.38;;;22.57;39.83
38616;BME280;24370;51.986;4.666;2023-06-05T05:46:26;102404.69;;;22.47;39.60
38616;BME280;24370;51.986;4.666;2023-06-05T05:48:51;102407.47;;;22.17;40.36
38616;BME280;24370;51.986;4.666;2023-06-05T05:51:17;102400.19;;;22.49;39.94
38616;BME280;24370;51.986;4.666;2023-06-05T05:53:42;102396.19;;;22.86;38.46
38616;BME280;24370;51.986;4.666;2023-06-05T05:56:08;102398.91;;;22.60;39.59
38616;BME280;24370;51.986;4.666;2023-06-05T05:58:33;102397.31;;;23.50;37.60
38616;BME280;24370;51.986;4.666;2023-06-05T06:00:59;102405.59;;;21.66;40.45
38616;BME280;24370;51.986;4.666;2023-06-05T06:03:25;102401.50;;;23.10;38.83
38616;BME280;24370;51.986;4.666;2023-06-05T06:05:53;102407.88;;;23.06;38.91
38616;BME280;24370;51.986;4.666;2023-06-05T06:08:19;102404.66;;;23.21;38.40
38616;BME280;24370;51.986;4.666;2023-06-05T06:10:45;102412.19;;;23.56;37.42
38616;BME280;24370;51.986;4.666;2023-06-05T06:13:11;102415.78;;;22.60;39.28
38616;BME280;24370;51.986;4.666;2023-06-05T06:15:37;102413.50;;;24.12;37.04
38616;BME280;24370;51.986;4.666;2023-06-05T06:18:04;102406.34;;;25.14;36.36
38616;BME280;24370;51.986;4.666;2023-06-05T06:20:31;102407.63;;;25.24;34.69
38616;BME280;24370;51.986;4.666;2023-06-05T06:22:56;102412.25;;;26.83;32.44
38616;BME280;24370;51.986;4.666;2023-06-05T06:25:22;102406.06;;;26.64;32.71
38616;BME280;24370;51.986;4.666;2023-06-05T06:27:54;102408.81;;;27.61;31.22
38616;BME280;24370;51.986;4.666;2023-06-05T06:30:19;102408.56;;;28.12;30.11
38616;BME280;24370;51.986;4.666;2023-06-05T06:32:45;102410.34;;;28.42;29.90
38616;BME280;24370;51.986;4.666;2023-06-05T06:35:11;102414.56;;;29.47;27.38
38616;BME280;24370;51.986;4.666;2023-06-05T06:37:39;102410.09;;;30.67;26.83
38616;BME280;24370;51.986;4.666;2023-06-05T06:40:05;102414.34;;;30.31;27.03
38616;BME280;24370;51.986;4.666;2023-06-05T06:42:36;102412.72;;;29.75;27.55
38616;BME280;24370;51.986;4.666;2023-06-05T06:45:02;102418.00;;;28.79;28.19
38616;BME280;24370;51.986;4.666;2023-06-05T06:47:29;102420.25;;;27.33;30.10
38616;BME280;24370;51.986;4.666;2023-06-05T06:49:55;102413.69;;;31.17;25.70
38616;BME280;24370;51.986;4.666;2023-06-05T06:52:22;102413.19;;;30.86;25.64
38616;BME280;24370;51.986;4.666;2023-06-05T06:54:47;102414.56;;;31.18;25.32
38616;BME280;24370;51.986;4.666;2023-06-05T06:57:13;102423.84;;;31.75;24.77
38616;BME280;24370;51.986;4.666;2023-06-05T06:59:38;102426.91;;;32.41;24.77
38616;BME280;24370;51.986;4.666;2023-06-05T07:04:37;102421.72;;;30.93;25.62
38616;BME280;24370;51.986;4.666;2023-06-05T07:07:03;102426.47;;;30.89;25.15
38616;BME280;24370;51.986;4.666;2023-06-05T07:09:29;102430.38;;;33.00;24.60
38616;BME280;24370;51.986;4.666;2023-06-05T07:11:54;102431.22;;;32.67;23.42
38616;BME280;24370;51.986;4.666;2023-06-05T07:14:21;102424.00;;;32.90;23.44
38616;BME280;24370;51.986;4.666;2023-06-05T07:16:47;102428.03;;;33.07;23.92
38616;BME280;24370;51.986;4.666;2023-06-05T07:19:15;102428.84;;;34.70;22.07
38616;BME280;24370;51.986;4.666;2023-06-05T07:21:40;102435.25;;;34.38;22.18
38616;BME280;24370;51.986;4.666;2023-06-05T07:24:06;102424.44;;;34.05;21.81
38616;BME280;24370;51.986;4.666;2023-06-05T07:26:32;102422.59;;;34.79;20.95
38616;BME280;24370;51.986;4.666;2023-06-05T07:28:57;102435.88;;;32.30;23.63
38616;BME280;24370;51.986;4.666;2023-06-05T07:31:22;102422.00;;;33.26;22.34
38616;BME280;24370;51.986;4.666;2023-06-05T07:33:48;102423.13;;;33.35;22.82
38616;BME280;24370;51.986;4.666;2023-06-05T07:36:13;102422.34;;;34.09;22.24
38616;BME280;24370;51.986;4.666;2023-06-05T07:38:39;102427.44;;;34.02;22.29
38616;BME280;24370;51.986;4.666;2023-06-05T07:41:06;102425.81;;;33.67;23.34
38616;BME280;24370;51.986;4.666;2023-06-05T07:43:31;102425.38;;;33.94;22.39
38616;BME280;24370;51.986;4.666;2023-06-05T07:45:57;102419.50;;;31.96;24.53
38616;BME280;24370;51.986;4.666;2023-06-05T07:48:22;102423.63;;;32.83;22.91
38616;BME280;24370;51.986;4.666;2023-06-05T07:50:48;102421.88;;;32.48;24.03
38616;BME280;24370;51.986;4.666;2023-06-05T07:53:13;102418.44;;;32.46;24.27
38616;BME280;24370;51.986;4.666;2023-06-05T07:55:39;102421.13;;;34.02;22.25
38616;BME280;24370;51.986;4.666;2023-06-05T07:58:04;102426.09;;;32.97;23.42
38616;BME280;24370;51.986;4.666;2023-06-05T08:00:29;102416.13;;;32.75;23.74
38616;BME280;24370;51.986;4.666;2023-06-05T08:02:55;102423.13;;;32.78;23.34
38616;BME280;24370;51.986;4.666;2023-06-05T08:05:22;102421.88;;;32.48;23.71
38616;BME280;24370;51.986;4.666;2023-06-05T08:07:48;102420.69;;;33.96;22.53
38616;BME280;24370;51.986;4.666;2023-06-05T08:10:13;102416.22;;;35.50;20.66
38616;BME280;24370;51.986;4.666;2023-06-05T08:12:40;102409.59;;;35.23;21.40
38616;BME280;24370;51.986;4.666;2023-06-05T08:15:06;102424.72;;;34.02;22.52
38616;BME280;24370;51.986;4.666;2023-06-05T08:17:31;102418.97;;;34.99;20.67
38616;BME280;24370;51.986;4.666;2023-06-05T08:19:57;102419.91;;;34.58;21.97
38616;BME280;24370;51.986;4.666;2023-06-05T08:22:22;102422.06;;;34.85;21.29
38616;BME280;24370;51.986;4.666;2023-06-05T08:24:48;102421.09;;;34.13;21.51
38616;BME280;24370;51.986;4.666;2023-06-05T08:27:15;102419.53;;;34.93;21.59
38616;BME280;24370;51.986;4.666;2023-06-05T08:29:41;102417.66;;;35.54;20.37
38616;BME280;24370;51.986;4.666;2023-06-05T08:32:06;102409.06;;;35.98;20.23
38616;BME280;24370;51.986;4.666;2023-06-05T08:34:32;102416.31;;;33.84;22.39
38616;BME280;24370;51.986;4.666;2023-06-05T08:36:58;102411.53;;;33.97;22.62
38616;BME280;24370;51.986;4.666;2023-06-05T08:39:27;102409.47;;;34.84;21.26
38616;BME280;24370;51.986;4.666;2023-06-05T08:41:57;102416.09;;;33.64;22.28
38616;BME280;24370;51.986;4.666;2023-06-05T08:44:27;102414.69;;;32.24;23.28
38616;BME280;24370;51.986;4.666;2023-06-05T08:46:59;102411.41;;;32.32;23.70
38616;BME280;24370;51.986;4.666;2023-06-05T08:49:27;102403.53;;;32.63;23.67
38616;BME280;24370;51.986;4.666;2023-06-05T08:52:01;102404.72;;;34.03;21.79
38616;BME280;24370;51.986;4.666;2023-06-05T08:54:31;102409.25;;;34.97;21.29
38616;BME280;24370;51.986;4.666;2023-06-05T08:57:03;102397.56;;;36.33;19.89
38616;BME280;24370;51.986;4.666;2023-06-05T08:59:29;102414.19;;;34.82;21.33
38616;BME280;24370;51.986;4.666;2023-06-05T09:01:56;102413.19;;;32.78;23.15
38616;BME280;24370;51.986;4.666;2023-06-05T09:04:21;102413.78;;;32.82;23.47
38616;BME280;24370;51.986;4.666;2023-06-05T09:06:50;102413.00;;;33.37;22.55
38616;BME280;24370;51.986;4.666;2023-06-05T09:09:18;102409.88;;;31.81;24.24
38616;BME280;24370;51.986;4.666;2023-06-05T09:11:43;102404.84;;;33.80;22.90
38616;BME280;24370;51.986;4.666;2023-06-05T09:14:09;102408.44;;;33.70;22.70
38616;BME280;24370;51.986;4.666;2023-06-05T09:16:42;102400.19;;;36.06;20.83
38616;BME280;24370;51.986;4.666;2023-06-05T09:19:12;102399.19;;;33.40;22.42
38616;BME280;24370;51.986;4.666;2023-06-05T09:21:37;102403.31;;;34.51;21.48
38616;BME280;24370;51.986;4.666;2023-06-05T09:26:46;102401.97;;;34.36;21.88
38616;BME280;24370;51.986;4.666;2023-06-05T09:29:12;102395.28;;;33.65;22.28
38616;BME280;24370;51.986;4.666;2023-06-05T09:31:41;102403.53;;;34.38;21.52
38616;BME280;24370;51.986;4.666;2023-06-05T09:34:10;102390.69;;;33.77;22.52
38616;BME280;24370;51.986;4.666;2023-06-05T09:36:44;102388.03;;;34.81;22.04
38616;BME280;24370;51.986;4.666;2023-06-05T09:39:14;102389.75;;;34.51;21.12
38616;BME280;24370;51.986;4.666;2023-06-05T09:41:44;102382.16;;;35.46;20.66
38616;BME280;24370;51.986;4.666;2023-06-05T09:44:10;102373.47;;;35.32;20.74
38616;BME280;24370;51.986;4.666;2023-06-05T09:49:15;102392.13;;;36.33;20.10
38616;BME280;24370;51.986;4.666;2023-06-05T09:51:42;102385.03;;;35.64;20.77
38616;BME280;24370;51.986;4.666;2023-06-05T09:54:08;102383.09;;;36.71;19.87
38616;BME280;24370;51.986;4.666;2023-06-05T09:56:39;102380.53;;;34.73;20.71
38616;BME280;24370;51.986;4.666;2023-06-05T09:59:07;102376.88;;;35.35;20.38
38616;BME280;24370;51.986;4.666;2023-06-05T10:01:39;102391.28;;;34.75;21.33
38616;BME280;24370;51.986;4.666;2023-06-05T10:04:06;102377.72;;;34.75;21.22
38616;BME280;24370;51.986;4.666;2023-06-05T10:06:37;102386.00;;;33.79;21.93
38616;BME280;24370;51.986;4.666;2023-06-05T10:09:03;102391.53;;;35.03;21.03
38616;BME280;24370;51.986;4.666;2023-06-05T10:11:29;102382.94;;;34.97;21.07
38616;BME280;24370;51.986;4.666;2023-06-05T10:13:55;102383.97;;;34.13;21.84
38616;BME280;24370;51.986;4.666;2023-06-05T10:16:25;102386.53;;;34.15;21.20
38616;BME280;24370;51.986;4.666;2023-06-05T10:18:51;102384.34;;;34.82;21.38
38616;BME280;24370;51.986;4.666;2023-06-05T10:21:18;102377.88;;;35.92;19.62
38616;BME280;24370;51.986;4.666;2023-06-05T10:23:48;102376.28;;;34.71;20.54
38616;BME280;24370;51.986;4.666;2023-06-05T10:35:01;102377.03;;;33.99;21.63
38616;BME280;24370;51.986;4.666;2023-06-05T10:40:03;102372.50;;;34.62;21.92
38616;BME280;24370;51.986;4.666;2023-06-05T10:42:30;102369.47;;;34.86;21.46
38616;BME280;24370;51.986;4.666;2023-06-05T10:44:55;102363.63;;;34.50;22.31
38616;BME280;24370;51.986;4.666;2023-06-05T10:52:43;102370.59;;;35.44;19.97
38616;BME280;24370;51.986;4.666;2023-06-05T10:55:10;102363.31;;;35.83;20.25
38616;BME280;24370;51.986;4.666;2023-06-05T11:00:21;102364.66;;;36.92;19.72
38616;BME280;24370;51.986;4.666;2023-06-05T11:02:48;102365.78;;;34.97;20.61
38616;BME280;24370;51.986;4.666;2023-06-05T11:05:14;102368.53;;;34.14;21.30
38616;BME280;24370;51.986;4.666;2023-06-05T11:07:41;102355.47;;;34.81;20.81
38616;BME280;24370;51.986;4.666;2023-06-05T11:10:11;102361.44;;;35.45;20.35
38616;BME280;24370;51.986;4.666;2023-06-05T11:15:35;102359.63;;;33.81;21.46
38616;BME280;24370;51.986;4.666;2023-06-05T11:18:26;102349.66;;;36.78;19.47
38616;BME280;24370;51.986;4.666;2023-06-05T11:20:51;102345.56;;;36.64;19.55
38616;BME280;24370;51.986;4.666;2023-06-05T11:23:17;102340.38;;;37.97;18.43
38616;BME280;24370;51.986;4.666;2023-06-05T11:25:42;102341.59;;;36.87;19.54
38616;BME280;24370;51.986;4.666;2023-06-05T11:28:08;102342.34;;;36.04;19.95
38616;BME280;24370;51.986;4.666;2023-06-05T11:30:42;102338.34;;;34.90;21.41
38616;BME280;24370;51.986;4.666;2023-06-05T11:33:09;102341.66;;;33.69;22.16
38616;BME280;24370;51.986;4.666;2023-06-05T11:35:38;102344.16;;;34.45;21.77
38616;BME280;24370;51.986;4.666;2023-06-05T11:38:12;102341.53;;;35.54;20.76
38616;BME280;24370;51.986;4.666;2023-06-05T11:40:39;102336.44;;;36.56;19.65
38616;BME280;24370;51.986;4.666;2023-06-05T11:43:06;102334.19;;;36.04;20.22
38616;BME280;24370;51.986;4.666;2023-06-05T11:45:33;102334.97;;;35.47;20.56
38616;BME280;24370;51.986;4.666;2023-06-05T11:48:09;102329.38;;;35.78;20.65
38616;BME280;24370;51.986;4.666;2023-06-05T11:50:41;102325.53;;;35.31;20.38
38616;BME280;24370;51.986;4.666;2023-06-05T11:53:17;102317.78;;;35.56;20.11
38616;BME280;24370;51.986;4.666;2023-06-05T11:55:42;102320.75;;;36.95;19.71
38616;BME280;24370;51.986;4.666;2023-06-05T11:58:26;102323.78;;;35.70;20.46
38616;BME280;24370;51.986;4.666;2023-06-05T12:01:04;102320.06;;;35.90;19.96
38616;BME280;24370;51.986;4.666;2023-06-05T12:03:29;102330.78;;;34.01;22.79
38616;BME280;24370;51.986;4.666;2023-06-05T12:05:55;102318.38;;;35.50;20.86
38616;BME280;24370;51.986;4.666;2023-06-05T12:08:21;102314.28;;;36.96;19.74
38616;BME280;24370;51.986;4.666;2023-06-05T12:10:47;102320.03;;;35.02;20.37
38616;BME280;24370;51.986;4.666;2023-06-05T12:13:12;102320.47;;;35.17;21.16
38616;BME280;24370;51.986;4.666;2023-06-05T12:15:38;102317.59;;;34.89;21.94
38616;BME280;24370;51.986;4.666;2023-06-05T12:18:04;102311.38;;;34.06;22.74
38616;BME280;24370;51.986;4.666;2023-06-05T12:20:37;102315.72;;;34.18;22.78
38616;BME280;24370;51.986;4.666;2023-06-05T12:23:03;102319.56;;;33.52;23.29
38616;BME280;24370;51.986;4.666;2023-06-05T12:25:29;102315.50;;;33.25;23.60
38616;BME280;24370;51.986;4.666;2023-06-05T12:27:54;102314.31;;;34.24;22.79
38616;BME280;24370;51.986;4.666;2023-06-05T12:30:20;102311.13;;;34.30;22.12
38616;BME280;24370;51.986;4.666;2023-06-05T12:32:46;102312.84;;;33.68;23.22
38616;BME280;24370;51.986;4.666;2023-06-05T12:35:23;102304.31;;;34.14;22.83
38616;BME280;24370;51.986;4.666;2023-06-05T12:37:49;102313.44;;;33.06;24.24
38616;BME280;24370;51.986;4.666;2023-06-05T12:40:15;102311.97;;;33.46;23.51
38616;BME280;24370;51.986;4.666;2023-06-05T12:42:47;102302.88;;;33.68;23.30
38616;BME280;24370;51.986;4.666;2023-06-05T12:45:13;102309.59;;;33.74;23.54
38616;BME280;24370;51.986;4.666;2023-06-05T12:47:39;102310.50;;;33.95;23.08
38616;BME280;24370;51.986;4.666;2023-06-05T12:50:07;102307.03;;;34.45;22.77
38616;BME280;24370;51.986;4.666;2023-06-05T12:52:40;102298.41;;;34.30;23.34
38616;BME280;24370;51.986;4.666;2023-06-05T12:55:06;102311.59;;;33.72;23.04
38616;BME280;24370;51.986;4.666;2023-06-05T12:57:32;102301.41;;;32.99;24.17
38616;BME280;24370;51.986;4.666;2023-06-05T12:59:59;102299.97;;;32.95;24.50
38616;BME280;24370;51.986;4.666;2023-06-05T13:02:30;102294.25;;;33.42;23.99
38616;BME280;24370;51.986;4.666;2023-06-05T13:04:57;102298.00;;;33.83;22.98
38616;BME280;24370;51.986;4.666;2023-06-05T13:07:22;102287.03;;;33.85;23.35
38616;BME280;24370;51.986;4.666;2023-06-05T13:09:47;102284.38;;;33.08;23.63
38616;BME280;24370;51.986;4.666;2023-06-05T13:12:13;102275.84;;;33.78;24.00
38616;BME280;24370;51.986;4.666;2023-06-05T13:14:38;102280.72;;;33.42;23.60
38616;BME280;24370;51.986;4.666;2023-06-05T13:17:04;102279.22;;;33.05;24.33
38616;BME280;24370;51.986;4.666;2023-06-05T13:19:30;102279.22;;;32.73;24.14
38616;BME280;24370;51.986;4.666;2023-06-05T13:21:55;102263.78;;;33.49;22.95